Time;durP1;ratioP1;P1;durP2;ratioP2;P2;SDS_P1;SDS_P2;PMS_P1;PMS_P2;Temp;Humidity;BMP_temperature;BMP_pressure;BME280_temperature;BME280_humidity;BME280_pressure;Samples;Min_cycle;Max_cycle;Signal;HPM_P1;HPM_P2
2022/12/08 15:03:07;;;;;;;23.80;13.55;;;3.30;92.90;;;;;;5131979;27;20482;-59
2022/12/08 15:05:33;;;;;;;22.77;12.60;;;3.30;93.00;;;;;;5131044;28;20029;-62
2022/12/08 15:08:02;;;;;;;28.48;12.77;;;3.30;93.00;;;;;;5130941;28;20016;-60
2022/12/08 15:10:31;;;;;;;21.63;13.63;;;3.30;93.00;;;;;;5133312;28;20038;-59
2022/12/08 15:13:09;;;;;;;26.60;16.08;;;3.40;93.00;;;;;;5112867;28;20023;-58
2022/12/08 15:15:55;;;;;;;27.63;15.55;;;3.40;92.60;;;;;;5131204;28;20049;-59
2022/12/08 15:18:36;;;;;;;32.17;16.75;;;3.40;92.60;;;;;;5130787;27;20032;-62
2022/12/08 15:21:11;;;;;;;29.75;17.35;;;3.40;92.70;;;;;;5131177;27;20370;-59
2022/12/08 15:24:03;;;;;;;30.83;17.00;;;3.50;92.80;;;;;;5130725;27;20111;-59
2022/12/08 15:26:37;;;;;;;37.80;21.13;;;3.60;92.30;;;;;;5128821;27;20029;-62
2022/12/08 15:29:35;;;;;;;33.92;19.05;;;3.60;92.50;;;;;;5130798;27;20020;-61
2022/12/08 15:32:01;;;;;;;41.45;21.55;;;3.70;92.50;;;;;;5129075;28;20114;-58
2022/12/08 15:34:27;;;;;;;35.38;20.50;;;3.70;92.40;;;;;;5129022;28;20115;-61
2022/12/08 15:36:53;;;;;;;42.03;22.55;;;3.70;92.40;;;;;;5131150;27;20016;-60
2022/12/08 15:39:23;;;;;;;37.33;21.92;;;3.80;92.40;;;;;;5130371;27;20032;-60
2022/12/08 15:41:48;;;;;;;34.70;20.48;;;3.80;92.20;;;;;;5130692;27;20122;-61
2022/12/08 15:44:14;;;;;;;39.15;21.55;;;3.90;92.10;;;;;;5130243;27;20070;-56
2022/12/08 15:46:43;;;;;;;37.78;22.20;;;3.90;91.90;;;;;;5130977;27;20451;-60
2022/12/08 15:49:18;;;;;;;40.20;22.80;;;3.90;91.70;;;;;;5132003;27;20027;-61
2022/12/08 15:51:44;;;;;;;44.28;23.40;;;3.80;91.60;;;;;;5129467;28;20519;-60
2022/12/08 15:54:10;;;;;;;41.03;22.80;;;3.80;91.60;;;;;;5129529;28;20031;-58
2022/12/08 15:56:41;;;;;;;37.90;20.02;;;3.80;91.80;;;;;;5129351;28;20023;-60
2022/12/08 15:59:19;;;;;;;36.80;20.27;;;3.80;91.50;;;;;;5129225;28;20031;-58
2022/12/08 16:01:45;;;;;;;38.40;20.40;;;3.70;91.80;;;;;;5130162;27;20126;-59
2022/12/08 16:04:14;;;;;;;51.08;26.98;;;3.70;91.60;;;;;;5129314;28;20023;-59
2022/12/08 16:06:42;;;;;;;33.65;20.70;;;3.60;91.90;;;;;;5129128;28;20039;-63
2022/12/08 16:09:20;;;;;;;38.72;21.65;;;3.60;91.90;;;;;;5130247;27;20024;-62
2022/12/08 16:14:30;;;;;;;36.60;19.10;;;3.70;92.10;;;;;;5116101;28;20157;-55
2022/12/08 16:16:56;;;;;;;39.63;20.65;;;3.60;91.90;;;;;;5116738;28;20088;-59
2022/12/08 16:19:22;;;;;;;34.42;20.98;;;3.60;92.10;;;;;;5116820;28;20484;-54
2022/12/08 16:21:47;;;;;;;31.00;19.25;;;3.60;92.10;;;;;;5116080;28;20118;-60
2022/12/08 16:24:13;;;;;;;35.85;20.27;;;3.70;92.30;;;;;;5115982;28;20390;-60
2022/12/08 16:26:39;;;;;;;35.42;19.00;;;3.70;92.10;;;;;;5116623;28;20035;-59
2022/12/08 16:29:05;;;;;;;35.63;20.20;;;3.70;92.10;;;;;;5116676;28;20026;-59
2022/12/08 16:31:30;;;;;;;34.15;19.73;;;3.70;92.10;;;;;;5116423;28;20114;-58
2022/12/08 16:33:56;;;;;;;34.70;20.42;;;3.60;92.00;;;;;;5116028;28;20107;-57
2022/12/08 16:36:22;;;;;;;40.47;21.88;;;3.70;92.20;;;;;;5115918;28;20023;-58
2022/12/08 16:38:47;;;;;;;35.88;21.35;;;3.80;92.10;;;;;;5114769;28;20027;-59
2022/12/08 16:44:01;;;;;;;36.03;20.50;;;3.90;92.00;;;;;;5116875;28;20076;-60
2022/12/08 16:46:27;;;;;;;39.30;24.05;;;3.90;91.90;;;;;;5114232;28;20015;-57
2022/12/08 16:48:54;;;;;;;33.65;19.38;;;4.00;91.50;;;;;;5114335;28;20046;-59
2022/12/08 16:51:20;;;;;;;39.40;23.00;;;3.90;91.40;;;;;;5115932;28;20034;-59
2022/12/08 16:53:45;;;;;;;40.38;22.17;;;3.80;91.20;;;;;;5116493;28;20068;-59
2022/12/08 16:56:16;;;;;;;36.15;20.85;;;3.80;91.40;;;;;;5114129;28;20057;-59
2022/12/08 16:58:42;;;;;;;39.83;23.17;;;3.80;91.40;;;;;;5115468;28;20384;-60
2022/12/08 17:01:12;;;;;;;35.85;22.15;;;4.00;91.50;;;;;;5114844;28;20035;-59
2022/12/08 17:03:42;;;;;;;36.25;21.67;;;3.90;91.20;;;;;;5114006;28;20032;-62
2022/12/08 17:06:16;;;;;;;33.25;20.70;;;4.00;91.30;;;;;;5114216;28;20028;-59
2022/12/08 17:08:43;;;;;;;40.70;23.88;;;4.00;91.30;;;;;;5115568;27;20030;-61
2022/12/08 17:11:11;;;;;;;36.30;21.83;;;4.10;91.40;;;;;;5113819;28;20114;-57
2022/12/08 17:13:41;;;;;;;37.70;21.40;;;4.00;91.20;;;;;;5114290;28;20493;-60
2022/12/08 17:16:14;;;;;;;36.95;21.42;;;4.10;91.10;;;;;;5113767;28;20027;-60
2022/12/08 17:18:40;;;;;;;38.58;22.98;;;4.10;91.00;;;;;;5115240;28;20059;-58
2022/12/08 17:21:13;;;;;;;40.80;23.10;;;4.00;91.00;;;;;;5114851;28;20070;-58
2022/12/08 17:23:40;;;;;;;38.97;22.95;;;4.10;90.90;;;;;;5115079;28;20462;-62
2022/12/08 17:26:06;;;;;;;42.60;22.08;;;4.00;90.90;;;;;;5112718;28;20020;-56
2022/12/08 17:28:31;;;;;;;37.60;23.05;;;4.00;91.10;;;;;;5115175;28;20320;-60
2022/12/08 17:30:57;;;;;;;46.33;24.13;;;3.80;91.40;;;;;;5113963;28;20020;-60
2022/12/08 17:33:23;;;;;;;41.88;22.75;;;3.80;91.80;;;;;;5114984;28;20024;-59
2022/12/08 17:35:51;;;;;;;43.35;23.33;;;3.80;91.70;;;;;;5114080;28;20020;-59
2022/12/08 17:38:18;;;;;;;41.65;23.60;;;3.60;91.90;;;;;;5113507;28;20489;-59
2022/12/08 17:40:44;;;;;;;39.20;23.25;;;3.60;92.00;;;;;;5114939;28;20015;-59
2022/12/08 17:43:11;;;;;;;45.72;25.50;;;3.60;92.00;;;;;;5115252;28;20026;-56
2022/12/08 17:45:42;;;;;;;42.58;24.48;;;3.70;92.10;;;;;;5113771;28;20058;-54
2022/12/08 17:48:08;;;;;;;46.50;25.63;;;3.80;92.00;;;;;;5114871;28;20450;-58
2022/12/08 17:50:39;;;;;;;50.75;24.45;;;3.70;91.80;;;;;;5115089;28;20027;-55
2022/12/08 17:53:05;;;;;;;47.20;23.40;;;3.60;92.00;;;;;;5115171;28;20127;-59
2022/12/08 17:55:31;;;;;;;38.33;22.33;;;3.60;92.10;;;;;;5114946;28;20032;-59
2022/12/08 17:57:57;;;;;;;47.33;26.17;;;3.50;92.20;;;;;;5113600;28;20028;-58
2022/12/08 18:00:26;;;;;;;44.70;25.23;;;3.40;92.40;;;;;;5113358;28;20127;-59
2022/12/08 18:02:52;;;;;;;44.03;25.92;;;3.50;92.60;;;;;;5114290;27;20542;-57
2022/12/08 18:05:18;;;;;;;44.53;24.67;;;3.50;92.70;;;;;;5114707;28;20031;-59
2022/12/08 18:07:44;;;;;;;47.75;24.83;;;3.60;92.70;;;;;;5114770;28;20027;-58
2022/12/08 18:10:10;;;;;;;46.17;24.98;;;3.50;92.60;;;;;;5114309;28;20029;-58
2022/12/08 18:12:36;;;;;;;39.60;24.42;;;3.50;92.70;;;;;;5114054;28;20078;-59
2022/12/08 18:15:04;;;;;;;51.45;26.67;;;3.50;92.70;;;;;;5114668;27;20492;-58
2022/12/08 18:17:30;;;;;;;48.33;26.17;;;3.50;92.70;;;;;;5114236;28;20427;-59
2022/12/08 18:19:55;;;;;;;43.38;25.20;;;3.50;92.60;;;;;;5114547;28;20062;-59
2022/12/08 18:22:21;;;;;;;44.15;25.92;;;3.50;92.60;;;;;;5112618;28;20092;-59
2022/12/08 18:24:47;;;;;;;47.20;25.42;;;3.40;92.50;;;;;;5113942;28;20019;-56
2022/12/08 18:27:12;;;;;;;52.10;27.75;;;3.40;92.50;;;;;;5114530;28;20047;-59
2022/12/08 18:29:38;;;;;;;47.03;26.65;;;3.40;92.50;;;;;;5114021;28;20493;-57
2022/12/08 18:32:04;;;;;;;46.40;26.05;;;3.40;92.60;;;;;;5112482;28;20482;-58
2022/12/08 18:34:30;;;;;;;55.00;29.38;;;3.50;92.60;;;;;;5114023;28;20034;-57
2022/12/08 18:36:56;;;;;;;45.38;26.63;;;3.50;92.40;;;;;;5114029;28;20102;-61
2022/12/08 18:39:30;;;;;;;52.83;27.85;;;3.60;92.60;;;;;;5113745;28;20020;-57
2022/12/08 18:41:57;;;;;;;51.28;27.33;;;3.70;92.40;;;;;;5113770;28;20034;-58
2022/12/08 18:44:23;;;;;;;47.03;27.77;;;3.70;92.20;;;;;;5112596;28;20052;-57
2022/12/08 18:46:49;;;;;;;52.08;26.60;;;3.70;92.30;;;;;;5113882;28;20098;-59
2022/12/08 18:49:17;;;;;;;54.05;29.98;;;3.70;92.10;;;;;;5112620;28;20030;-62
2022/12/08 18:51:43;;;;;;;52.33;27.88;;;3.60;92.20;;;;;;5113720;28;20042;-57
2022/12/08 18:54:11;;;;;;;47.35;27.30;;;3.60;92.10;;;;;;5112535;28;20028;-58
2022/12/08 18:56:37;;;;;;;55.75;28.60;;;3.60;92.20;;;;;;5112612;28;20084;-58
2022/12/08 18:59:06;;;;;;;52.50;28.98;;;3.70;92.20;;;;;;5113724;28;20027;-59
2022/12/08 19:01:36;;;;;;;45.08;27.13;;;3.70;92.10;;;;;;5114073;28;20401;-58
2022/12/08 19:04:05;;;;;;;43.90;25.10;;;3.70;92.00;;;;;;5113849;27;20031;-59
2022/12/08 19:06:31;;;;;;;48.97;27.92;;;3.70;91.90;;;;;;5113775;28;20022;-59
2022/12/08 19:08:57;;;;;;;54.63;26.80;;;3.70;91.70;;;;;;5094965;28;20027;-58
2022/12/08 19:11:26;;;;;;;44.33;26.30;;;3.80;91.70;;;;;;5113307;28;20471;-59
2022/12/08 19:13:53;;;;;;;47.00;25.95;;;3.60;91.60;;;;;;5113735;28;20032;-60
2022/12/08 19:16:19;;;;;;;43.05;25.63;;;3.60;91.60;;;;;;5113576;28;20039;-60
2022/12/08 19:18:45;;;;;;;44.08;26.40;;;3.70;91.70;;;;;;5113710;28;20020;-60
2022/12/08 19:21:11;;;;;;;40.08;24.45;;;3.80;91.70;;;;;;5113499;28;20027;-58
2022/12/08 19:23:38;;;;;;;46.05;27.13;;;3.80;91.60;;;;;;5113486;28;20020;-58
2022/12/08 19:26:04;;;;;;;50.53;28.08;;;3.80;91.60;;;;;;5113594;28;20024;-57
2022/12/08 19:28:31;;;;;;;46.38;25.88;;;3.80;91.60;;;;;;5113524;28;20101;-58
2022/12/08 19:30:57;;;;;;;45.38;27.23;;;3.80;91.60;;;;;;5113278;28;20027;-58
2022/12/08 19:33:23;;;;;;;49.08;27.45;;;3.80;91.40;;;;;;5113488;28;20036;-57
2022/12/08 19:35:49;;;;;;;52.03;28.55;;;3.60;91.50;;;;;;5112034;28;20081;-56
2022/12/08 19:38:16;;;;;;;46.80;26.67;;;3.60;91.80;;;;;;5113489;28;20077;-60
2022/12/08 19:46:12;;;;;;;48.15;26.80;;;3.60;92.10;;;;;;5113880;28;20026;-57
2022/12/08 19:48:37;;;;;;;52.00;28.67;;;3.60;91.70;;;;;;5115047;28;20049;-58
2022/12/08 19:51:04;;;;;;;56.20;29.45;;;3.40;91.60;;;;;;5115733;28;20019;-58
2022/12/08 19:53:29;;;;;;;41.13;24.65;;;3.30;91.80;;;;;;5116951;28;20535;-59
2022/12/08 19:55:55;;;;;;;47.67;27.05;;;3.20;91.90;;;;;;5117116;28;20023;-59
2022/12/08 19:58:21;;;;;;;46.97;27.10;;;3.20;92.10;;;;;;5116955;28;20027;-58
2022/12/08 20:00:47;;;;;;;51.97;27.45;;;3.10;92.10;;;;;;5116641;28;20019;-57
2022/12/08 20:03:17;;;;;;;48.05;27.95;;;3.10;92.10;;;;;;5115509;28;20114;-58
2022/12/08 20:05:45;;;;;;;45.92;23.52;;;2.90;92.20;;;;;;5117143;28;20451;-56
2022/12/08 20:08:11;;;;;;;45.10;25.67;;;2.90;92.30;;;;;;5115495;28;20016;-58
2022/12/08 20:10:40;;;;;;;45.42;23.77;;;2.80;92.40;;;;;;5116972;28;20024;-57
2022/12/08 20:15:51;;;;;;;42.72;24.10;;;2.80;92.60;;;;;;5117380;28;20094;-58
2022/12/08 20:18:17;;;;;;;45.05;25.55;;;2.80;92.60;;;;;;5116881;28;20019;-58
2022/12/08 20:20:44;;;;;;;47.13;25.63;;;2.80;92.70;;;;;;5116780;28;20485;-59
2022/12/08 20:23:10;;;;;;;52.15;29.50;;;2.80;92.70;;;;;;5116662;28;20077;-59
2022/12/08 20:25:44;;;;;;;45.13;27.00;;;2.80;92.60;;;;;;5116894;28;20035;-57
2022/12/08 20:28:10;;;;;;;49.42;27.45;;;2.80;92.60;;;;;;5115158;28;20019;-57
2022/12/08 20:30:40;;;;;;;51.13;26.95;;;2.80;92.70;;;;;;5116514;28;20424;-57
2022/12/08 20:33:05;;;;;;;50.65;27.23;;;2.80;92.70;;;;;;5116354;27;20023;-56
2022/12/08 20:35:31;;;;;;;49.58;26.80;;;2.80;92.70;;;;;;5116267;28;20157;-57
2022/12/08 20:37:57;;;;;;;46.60;26.05;;;2.80;92.70;;;;;;5116263;28;20038;-58
2022/12/08 20:40:23;;;;;;;55.42;28.35;;;2.70;92.80;;;;;;5116251;28;20032;-58
2022/12/08 20:42:49;;;;;;;52.65;28.63;;;2.80;92.60;;;;;;5116189;28;20077;-56
2022/12/08 20:45:14;;;;;;;47.47;27.08;;;2.80;92.70;;;;;;5116376;28;20031;-59
2022/12/08 20:47:40;;;;;;;50.78;27.33;;;2.80;92.50;;;;;;5116181;28;20039;-58
2022/12/08 20:50:06;;;;;;;46.30;25.73;;;2.80;92.60;;;;;;5116274;28;20024;-60
2022/12/08 20:52:32;;;;;;;49.83;27.42;;;2.90;92.50;;;;;;5116155;28;20079;-58
2022/12/08 20:54:58;;;;;;;43.33;25.23;;;2.80;92.40;;;;;;5114775;28;20038;-59
2022/12/08 20:57:23;;;;;;;51.97;26.48;;;2.80;92.30;;;;;;5114633;28;20038;-58
2022/12/08 20:59:49;;;;;;;46.83;26.85;;;2.80;92.40;;;;;;5115909;28;20068;-59
